메인 페이지
METAR-TAF:

METAR-TAF

공항 :

도쿄국제공항, 일본

도쿄 국제공항

위도: 35-33N, 경도: 139-47E, 고도: 5m

현재 날씨관측

예보는 33분 전, 00:30시(UTC)에 발표되었습니다.
북북서17kt
온도 5°C
습도 24%
기압 1019 hPa
시정 10km 이상
고도 3000ft 상공 구름 조금
구름 보통

METAR: RJTT 180030Z 33017KT 9999 FEW030 SCT/// 05/M14 Q1019 TEMPO 34018G28KT

시각: 10:03 (01:03 UTC)

예보

예보는 19분 전, 00:44시(UTC)에 발표되었습니다.
예보 대상 시간: 18일 00시부터 19일 06시까지 (UTC)
12kt
시정 10km 이상
고도 3000ft 상공 구름 조금
일시적
18일 00시부터 18일 03시까지 (UTC)
북북서18kt, 순간 최대 풍속 28kt
전환 중
19일 03시부터 19일 06시까지 (UTC)
7kt

TAF: RJTT 180044Z 1800/1906 35012KT 9999 FEW030 TEMPO 1800/1803 34018G28KT BECMG 1903/1906 10007KT

4,000개 이상의 공항 관측 자료 및 예보 (METAR 및 TAF 보고).

지도상에서 검색 가능한 기상관측소가 노란 점과 빨간 점으로 표시되어 있습니다.

기상관측소 명을 보려면 표시 위로 마우스를 이동하세요.

날씨 관측과 예보를 보려면 클릭하세요.

지도 변경 : 확대하려면 엑스 표시가 있는 녹색 버튼, 축소하려면 빼기 표시가 있는 녹색 버튼, 다음 페이지의 지도를 보려면 녹색 화살표를 클릭하세요.


METAR-TAF: